Time;durP1;ratioP1;P1;durP2;ratioP2;P2;SDS_P1;SDS_P2;PMS_P1;PMS_P2;Temp;Humidity;BMP_temperature;BMP_pressure;BME280_temperature;BME280_humidity;BME280_pressure;Samples;Min_cycle;Max_cycle;Signal;HPM_P1;HPM_P2
2024/01/08 00:00:26;;;;;;;4.90;3.47;;;;;;;;;;5102604;28;20047;-60
2024/01/08 00:02:53;;;;;;;4.18;3.30;;;;;;;;;;5102983;28;20055;-59
2024/01/08 00:05:19;;;;;;;5.15;3.50;;;;;;;;;;5103529;27;20080;-61
2024/01/08 00:07:45;;;;;;;4.95;3.20;;;;;;;;;;5100889;27;20134;-63
2024/01/08 00:10:12;;;;;;;5.22;3.70;;;;;;;;;;5103193;27;20330;-62
2024/01/08 00:12:38;;;;;;;5.85;3.90;;;;;;;;;;5103298;27;20056;-60
2024/01/08 00:15:07;;;;;;;7.13;3.80;;;;;;;;;;5095429;27;20064;-57
2024/01/08 00:17:34;;;;;;;6.63;4.22;;;;;;;;;;5093794;28;20486;-58
2024/01/08 00:20:00;;;;;;;5.25;4.07;;;;;;;;;;5099841;27;20059;-59
2024/01/08 00:22:27;;;;;;;7.10;4.40;;;;;;;;;;5088326;28;20148;-62
2024/01/08 00:24:53;;;;;;;5.13;3.92;;;;;;;;;;5099515;28;20052;-60
2024/01/08 00:27:19;;;;;;;5.55;3.95;;;;;;;;;;5095044;27;20513;-61
2024/01/08 00:29:46;;;;;;;4.45;3.47;;;;;;;;;;5088948;28;20052;-61
2024/01/08 00:32:12;;;;;;;5.65;4.13;;;;;;;;;;5101575;27;20778;-57
2024/01/08 00:34:43;;;;;;;5.60;4.15;;;;;;;;;;5103499;28;20058;-60
2024/01/08 00:37:09;;;;;;;4.90;3.78;;;;;;;;;;5102834;27;20056;-61
2024/01/08 00:39:36;;;;;;;4.82;3.65;;;;;;;;;;5102610;27;20060;-61
2024/01/08 00:42:02;;;;;;;5.55;4.00;;;;;;;;;;5103159;27;20052;-62
2024/01/08 00:44:29;;;;;;;4.22;3.42;;;;;;;;;;5100569;27;20048;-61
2024/01/08 00:46:55;;;;;;;5.55;3.47;;;;;;;;;;5102898;27;20058;-61
2024/01/08 00:49:22;;;;;;;4.75;3.17;;;;;;;;;;5095349;27;20062;-62
2024/01/08 00:51:49;;;;;;;5.20;3.80;;;;;;;;;;5086711;28;20055;-60
2024/01/08 00:54:15;;;;;;;4.45;3.35;;;;;;;;;;5102534;27;20143;-60
2024/01/08 00:56:41;;;;;;;5.07;3.65;;;;;;;;;;5102757;27;20062;-60
2024/01/08 00:59:08;;;;;;;6.30;4.05;;;;;;;;;;5095045;27;20111;-61
2024/01/08 01:01:34;;;;;;;6.28;4.05;;;;;;;;;;5087759;28;20048;-61
2024/01/08 01:04:01;;;;;;;4.18;3.10;;;;;;;;;;5102507;27;20063;-61
2024/01/08 01:06:27;;;;;;;3.80;3.22;;;;;;;;;;5091852;27;20052;-61
2024/01/08 01:08:54;;;;;;;5.25;3.58;;;;;;;;;;5094950;28;20110;-61
2024/01/08 01:11:20;;;;;;;10.25;3.70;;;;;;;;;;5102041;27;20123;-60
2024/01/08 01:13:47;;;;;;;6.05;3.35;;;;;;;;;;5084114;27;20139;-61
2024/01/08 01:16:13;;;;;;;5.43;3.20;;;;;;;;;;5102960;27;20135;-61
2024/01/08 01:18:39;;;;;;;3.90;3.25;;;;;;;;;;5101107;27;20043;-60
2024/01/08 01:21:10;;;;;;;4.25;3.40;;;;;;;;;;5100400;27;20063;-61
2024/01/08 01:23:36;;;;;;;5.13;3.95;;;;;;;;;;5099447;27;20080;-61
2024/01/08 01:26:03;;;;;;;5.78;4.15;;;;;;;;;;5103102;27;20056;-59
2024/01/08 01:28:29;;;;;;;5.30;3.72;;;;;;;;;;5101565;27;20513;-60
2024/01/08 01:30:56;;;;;;;5.30;4.03;;;;;;;;;;5098744;27;20510;-61
2024/01/08 01:33:23;;;;;;;4.82;3.60;;;;;;;;;;5097528;27;20052;-62
2024/01/08 01:35:49;;;;;;;4.35;3.50;;;;;;;;;;5101824;27;20051;-62
2024/01/08 01:38:15;;;;;;;7.75;3.40;;;;;;;;;;5099809;28;20540;-61
2024/01/08 01:40:42;;;;;;;5.35;3.90;;;;;;;;;;5102338;27;20110;-61
2024/01/08 01:43:38;;;;;;;5.57;3.45;;;;;;;;;;5100017;27;20474;-62
2024/01/08 01:46:06;;;;;;;4.10;2.85;;;;;;;;;;5091495;27;20121;-61
2024/01/08 01:48:32;;;;;;;7.18;3.60;;;;;;;;;;5088356;28;20048;-62
2024/01/08 01:51:00;;;;;;;6.60;3.53;;;;;;;;;;5102910;27;20059;-61
2024/01/08 01:53:27;;;;;;;5.07;3.75;;;;;;;;;;5100310;27;20058;-61
2024/01/08 01:55:54;;;;;;;5.22;3.15;;;;;;;;;;5101944;28;20167;-60
2024/01/08 01:58:20;;;;;;;8.77;3.92;;;;;;;;;;5085628;27;20056;-61
2024/01/08 02:00:47;;;;;;;6.43;3.33;;;;;;;;;;5099939;27;20491;-61
2024/01/08 02:03:13;;;;;;;5.65;3.63;;;;;;;;;;5095115;28;20114;-61
2024/01/08 02:05:40;;;;;;;6.50;3.60;;;;;;;;;;5092446;28;20087;-59
2024/01/08 02:08:08;;;;;;;6.65;3.60;;;;;;;;;;5101731;27;20060;-60
2024/01/08 02:10:35;;;;;;;4.32;3.38;;;;;;;;;;5102173;27;20052;-61
2024/01/08 02:13:02;;;;;;;5.28;3.55;;;;;;;;;;5098173;27;20052;-62
2024/01/08 02:15:28;;;;;;;7.47;4.13;;;;;;;;;;5097689;28;20510;-60
2024/01/08 02:17:54;;;;;;;4.18;3.22;;;;;;;;;;5102613;27;20075;-62
2024/01/08 02:20:21;;;;;;;7.15;4.15;;;;;;;;;;5104146;27;20058;-61
2024/01/08 02:22:47;;;;;;;6.22;4.00;;;;;;;;;;5103579;27;20510;-61
2024/01/08 02:25:14;;;;;;;5.35;3.90;;;;;;;;;;5103474;27;20052;-61
2024/01/08 02:27:40;;;;;;;6.05;3.75;;;;;;;;;;5104140;27;20056;-61
2024/01/08 02:30:07;;;;;;;6.38;3.90;;;;;;;;;;5103324;27;20107;-60
2024/01/08 02:32:33;;;;;;;4.50;3.50;;;;;;;;;;5098199;27;20146;-61
2024/01/08 02:35:00;;;;;;;6.70;3.70;;;;;;;;;;5101934;27;20060;-61
2024/01/08 02:37:26;;;;;;;6.18;3.92;;;;;;;;;;5101537;28;20075;-60
2024/01/08 02:39:52;;;;;;;4.10;3.60;;;;;;;;;;5103729;27;20052;-58
2024/01/08 02:42:20;;;;;;;5.60;3.72;;;;;;;;;;5104902;27;20603;-61
2024/01/08 02:44:47;;;;;;;5.63;3.80;;;;;;;;;;5103285;27;20858;-61
2024/01/08 02:47:14;;;;;;;6.40;4.07;;;;;;;;;;5103871;27;20098;-60
2024/01/08 02:49:40;;;;;;;5.63;3.63;;;;;;;;;;5099185;27;20117;-60
2024/01/08 02:52:07;;;;;;;11.60;4.18;;;;;;;;;;5102241;27;20063;-60
2024/01/08 02:54:33;;;;;;;6.00;3.65;;;;;;;;;;5104177;27;20120;-61
2024/01/08 02:57:00;;;;;;;6.57;4.10;;;;;;;;;;5103895;27;20048;-60
2024/01/08 02:59:26;;;;;;;5.30;4.25;;;;;;;;;;5099195;27;20141;-59
2024/01/08 03:01:53;;;;;;;4.32;3.15;;;;;;;;;;5103422;28;20083;-61
2024/01/08 03:04:19;;;;;;;6.85;4.38;;;;;;;;;;5103848;27;20048;-61
2024/01/08 03:06:45;;;;;;;7.28;3.78;;;;;;;;;;5103022;27;20059;-61
2024/01/08 03:09:12;;;;;;;9.75;3.92;;;;;;;;;;5103723;27;20052;-61
2024/01/08 03:11:38;;;;;;;6.45;4.20;;;;;;;;;;5104525;27;20055;-62
2024/01/08 03:14:05;;;;;;;5.15;4.00;;;;;;;;;;5103176;27;20052;-61
2024/01/08 03:16:31;;;;;;;7.72;3.63;;;;;;;;;;5101754;27;20055;-61
2024/01/08 03:18:58;;;;;;;6.38;4.22;;;;;;;;;;5101476;27;20056;-61
2024/01/08 03:21:24;;;;;;;8.35;4.70;;;;;;;;;;5102757;27;20056;-60
2024/01/08 03:23:50;;;;;;;7.65;4.32;;;;;;;;;;5100803;28;20143;-61
2024/01/08 03:26:17;;;;;;;5.35;4.03;;;;;;;;;;5103746;27;20044;-61
2024/01/08 03:28:43;;;;;;;7.68;4.63;;;;;;;;;;5103554;27;20098;-61
2024/01/08 03:31:10;;;;;;;6.28;4.75;;;;;;;;;;5103469;27;20712;-61
2024/01/08 03:33:36;;;;;;;9.73;4.60;;;;;;;;;;5103036;27;20656;-62
2024/01/08 03:36:03;;;;;;;6.35;3.92;;;;;;;;;;5098037;27;20135;-61
2024/01/08 03:38:30;;;;;;;9.77;4.20;;;;;;;;;;5103002;28;20063;-61
2024/01/08 03:40:56;;;;;;;11.05;4.13;;;;;;;;;;5102615;27;20067;-61
2024/01/08 03:43:23;;;;;;;7.60;4.07;;;;;;;;;;5103305;27;20050;-60
2024/01/08 03:45:49;;;;;;;5.93;4.00;;;;;;;;;;5102724;27;20142;-61
2024/01/08 03:48:16;;;;;;;5.95;4.45;;;;;;;;;;5102525;27;20056;-61
2024/01/08 03:50:42;;;;;;;7.65;4.25;;;;;;;;;;5100744;27;20123;-61
2024/01/08 03:53:09;;;;;;;7.22;4.32;;;;;;;;;;5102899;27;20331;-61
2024/01/08 03:55:37;;;;;;;7.18;4.07;;;;;;;;;;5104026;27;20135;-61
2024/01/08 03:58:03;;;;;;;10.07;4.63;;;;;;;;;;5101960;28;20048;-61
2024/01/08 04:00:30;;;;;;;10.80;4.57;;;;;;;;;;5099118;27;20604;-60
2024/01/08 04:02:56;;;;;;;9.10;4.50;;;;;;;;;;5091435;27;20091;-61
2024/01/08 04:05:23;;;;;;;10.20;4.82;;;;;;;;;;5103046;27;20054;-60
2024/01/08 04:07:50;;;;;;;8.23;4.75;;;;;;;;;;5102928;28;20142;-60
2024/01/08 04:10:16;;;;;;;7.35;4.88;;;;;;;;;;5102442;27;20084;-61
2024/01/08 04:12:43;;;;;;;7.97;4.05;;;;;;;;;;5102182;27;20056;-59
2024/01/08 04:15:09;;;;;;;8.23;4.90;;;;;;;;;;5100987;27;20520;-61
2024/01/08 04:17:36;;;;;;;10.70;5.72;;;;;;;;;;5100549;28;20052;-60
2024/01/08 04:20:03;;;;;;;6.85;4.60;;;;;;;;;;5100073;27;20047;-61
2024/01/08 04:22:30;;;;;;;7.65;4.32;;;;;;;;;;5095472;28;20063;-61
2024/01/08 04:24:56;;;;;;;7.20;4.72;;;;;;;;;;5102741;27;20059;-61
2024/01/08 04:27:23;;;;;;;7.38;4.93;;;;;;;;;;5102320;27;20171;-60
2024/01/08 04:29:49;;;;;;;9.50;4.95;;;;;;;;;;5101010;27;20108;-61
2024/01/08 04:32:15;;;;;;;10.70;5.22;;;;;;;;;;5095727;28;20048;-61
2024/01/08 04:34:42;;;;;;;8.85;4.95;;;;;;;;;;5102181;27;20147;-61
2024/01/08 04:37:09;;;;;;;7.82;5.22;;;;;;;;;;5097704;27;20091;-62
2024/01/08 04:39:36;;;;;;;7.40;4.65;;;;;;;;;;5101435;27;20052;-59
2024/01/08 04:42:03;;;;;;;9.07;5.60;;;;;;;;;;5102758;27;20044;-61
2024/01/08 04:44:31;;;;;;;8.38;4.82;;;;;;;;;;5101497;28;20052;-60
2024/01/08 04:46:57;;;;;;;9.07;5.28;;;;;;;;;;5099656;27;20055;-61
2024/01/08 04:49:24;;;;;;;6.72;4.95;;;;;;;;;;5102555;27;20052;-61
2024/01/08 04:51:51;;;;;;;14.23;5.80;;;;;;;;;;5090026;27;20143;-60
2024/01/08 04:54:18;;;;;;;11.80;5.22;;;;;;;;;;5099727;27;21712;-61
2024/01/08 04:56:45;;;;;;;8.27;4.85;;;;;;;;;;5100308;27;20529;-62
2024/01/08 04:59:12;;;;;;;10.45;5.72;;;;;;;;;;5102694;27;20052;-62
2024/01/08 05:01:38;;;;;;;6.85;4.38;;;;;;;;;;5097931;28;20542;-62
2024/01/08 05:04:05;;;;;;;7.40;5.18;;;;;;;;;;5100229;27;20056;-62
2024/01/08 05:06:34;;;;;;;5.68;3.45;;;;;;;;;;5101651;27;20056;-60
2024/01/08 05:09:02;;;;;;;9.68;5.22;;;;;;;;;;5101841;27;20048;-61
2024/01/08 05:11:29;;;;;;;7.60;4.95;;;;;;;;;;5101632;27;20521;-61
2024/01/08 05:13:55;;;;;;;7.40;4.70;;;;;;;;;;5102293;27;20166;-61
2024/01/08 05:16:22;;;;;;;8.38;5.43;;;;;;;;;;5098539;27;20176;-61
2024/01/08 05:18:49;;;;;;;9.82;5.65;;;;;;;;;;5101629;27;20139;-61
2024/01/08 05:21:15;;;;;;;10.52;5.20;;;;;;;;;;5102483;27;20059;-60
2024/01/08 05:23:42;;;;;;;10.52;5.80;;;;;;;;;;5101231;27;20055;-62
2024/01/08 05:26:08;;;;;;;8.57;5.40;;;;;;;;;;5102079;27;20056;-62
2024/01/08 05:28:35;;;;;;;7.97;5.38;;;;;;;;;;5100807;27;20107;-62
2024/01/08 05:31:02;;;;;;;9.52;5.70;;;;;;;;;;5101359;27;20460;-60
2024/01/08 05:33:28;;;;;;;7.25;5.40;;;;;;;;;;5101417;27;20105;-61
2024/01/08 05:35:55;;;;;;;10.23;5.55;;;;;;;;;;5096900;27;20143;-62
2024/01/08 05:38:22;;;;;;;8.70;5.68;;;;;;;;;;5090041;28;20048;-61
2024/01/08 05:40:49;;;;;;;8.65;5.50;;;;;;;;;;5101437;27;20110;-61
2024/01/08 05:43:16;;;;;;;9.77;5.35;;;;;;;;;;5100032;27;20212;-60
2024/01/08 05:45:42;;;;;;;7.68;5.22;;;;;;;;;;5097445;28;20048;-60
2024/01/08 05:48:09;;;;;;;8.57;5.53;;;;;;;;;;5101951;27;20095;-61
2024/01/08 05:50:39;;;;;;;8.30;5.45;;;;;;;;;;5102706;27;20133;-58
2024/01/08 05:53:06;;;;;;;13.18;6.70;;;;;;;;;;5104747;27;20093;-61
2024/01/08 05:55:32;;;;;;;9.05;6.40;;;;;;;;;;5103773;27;20055;-61
2024/01/08 05:57:59;;;;;;;11.40;6.00;;;;;;;;;;5105676;27;20052;-62
2024/01/08 06:00:25;;;;;;;9.55;5.85;;;;;;;;;;5102464;27;20083;-61
2024/01/08 06:02:51;;;;;;;7.28;5.53;;;;;;;;;;5100483;27;20139;-61
2024/01/08 06:05:18;;;;;;;12.77;5.57;;;;;;;;;;5103343;28;20058;-60
2024/01/08 06:07:47;;;;;;;9.73;5.78;;;;;;;;;;5103984;27;20071;-61
2024/01/08 06:10:14;;;;;;;8.65;5.93;;;;;;;;;;5104287;27;20157;-60
2024/01/08 06:12:40;;;;;;;7.60;4.97;;;;;;;;;;5103827;27;20056;-61
2024/01/08 06:15:07;;;;;;;9.95;6.15;;;;;;;;;;5104529;27;20079;-60
2024/01/08 06:17:33;;;;;;;10.52;5.90;;;;;;;;;;5103887;27;20137;-60
2024/01/08 06:20:00;;;;;;;10.27;6.05;;;;;;;;;;5104770;27;20531;-61
2024/01/08 06:22:26;;;;;;;7.93;5.57;;;;;;;;;;5101764;27;20465;-58
2024/01/08 06:24:53;;;;;;;9.88;5.50;;;;;;;;;;5105478;27;20052;-59
2024/01/08 06:27:19;;;;;;;11.68;5.95;;;;;;;;;;5104597;27;20856;-61
2024/01/08 06:29:45;;;;;;;9.75;5.80;;;;;;;;;;5103819;27;20239;-61
2024/01/08 06:32:12;;;;;;;8.50;5.40;;;;;;;;;;5103361;27;20454;-61
2024/01/08 06:34:38;;;;;;;10.15;5.95;;;;;;;;;;5103038;27;20137;-60
2024/01/08 06:37:05;;;;;;;7.25;5.38;;;;;;;;;;5099186;27;20048;-60
2024/01/08 06:39:31;;;;;;;6.32;4.65;;;;;;;;;;5103096;27;20509;-61
2024/01/08 06:41:57;;;;;;;8.15;5.53;;;;;;;;;;5103752;27;20051;-62
2024/01/08 06:44:24;;;;;;;10.40;4.95;;;;;;;;;;5102309;27;20051;-61
2024/01/08 06:46:51;;;;;;;6.75;5.13;;;;;;;;;;5103810;28;20050;-61
2024/01/08 06:49:18;;;;;;;14.25;5.68;;;;;;;;;;5102772;27;20060;-62
2024/01/08 06:51:45;;;;;;;8.93;5.10;;;;;;;;;;5102438;28;20052;-61
2024/01/08 06:54:11;;;;;;;10.25;4.95;;;;;;;;;;5102560;27;20630;-62
2024/01/08 06:56:38;;;;;;;6.93;4.45;;;;;;;;;;5104061;27;20052;-62
2024/01/08 06:59:05;;;;;;;7.25;4.43;;;;;;;;;;5101207;27;20056;-62
2024/01/08 07:01:31;;;;;;;7.20;4.90;;;;;;;;;;5101436;27;20129;-61
2024/01/08 07:03:57;;;;;;;9.00;4.25;;;;;;;;;;5099579;27;20438;-62
2024/01/08 07:06:24;;;;;;;7.80;5.00;;;;;;;;;;5092658;27;20049;-61
2024/01/08 07:08:51;;;;;;;8.02;5.07;;;;;;;;;;5098334;27;20078;-60
2024/01/08 07:11:19;;;;;;;8.27;5.07;;;;;;;;;;5095973;27;20106;-62
2024/01/08 07:13:45;;;;;;;6.03;4.65;;;;;;;;;;5094812;27;20059;-61
2024/01/08 07:16:12;;;;;;;6.07;4.03;;;;;;;;;;5095624;27;20552;-61
2024/01/08 07:18:38;;;;;;;12.38;5.20;;;;;;;;;;5096436;27;20060;-62
2024/01/08 07:21:05;;;;;;;7.93;4.07;;;;;;;;;;5096000;27;20095;-61
2024/01/08 07:23:32;;;;;;;6.88;4.68;;;;;;;;;;5093626;27;20547;-62
2024/01/08 07:25:58;;;;;;;7.45;4.55;;;;;;;;;;5094876;27;20579;-61
2024/01/08 07:28:25;;;;;;;10.77;4.50;;;;;;;;;;5093781;28;20125;-61
2024/01/08 07:30:51;;;;;;;5.25;3.85;;;;;;;;;;5094613;27;20055;-62
2024/01/08 07:33:18;;;;;;;6.63;3.72;;;;;;;;;;5093793;27;20053;-58
2024/01/08 07:35:45;;;;;;;6.22;4.47;;;;;;;;;;5095516;27;20063;-63
2024/01/08 07:38:11;;;;;;;5.82;3.92;;;;;;;;;;5095743;28;20052;-58
2024/01/08 07:40:38;;;;;;;6.00;3.80;;;;;;;;;;5103362;27;20056;-62
2024/01/08 07:43:04;;;;;;;5.47;3.22;;;;;;;;;;5103741;27;20099;-61
2024/01/08 07:45:31;;;;;;;5.10;4.03;;;;;;;;;;5101399;27;20501;-61
2024/01/08 07:47:57;;;;;;;7.28;3.58;;;;;;;;;;5089808;27;20045;-61
2024/01/08 07:50:24;;;;;;;5.80;4.13;;;;;;;;;;5104103;27;20075;-63
2024/01/08 07:52:51;;;;;;;7.82;3.70;;;;;;;;;;5103961;27;20472;-62
2024/01/08 07:55:19;;;;;;;6.00;4.18;;;;;;;;;;5094782;28;20052;-62
2024/01/08 07:57:46;;;;;;;6.82;3.90;;;;;;;;;;5094710;27;20062;-61
2024/01/08 08:00:13;;;;;;;5.72;3.75;;;;;;;;;;5102290;27;20719;-60
2024/01/08 08:02:39;;;;;;;7.53;4.55;;;;;;;;;;5092767;27;20091;-61
2024/01/08 08:05:06;;;;;;;7.97;4.07;;;;;;;;;;5101266;28;20040;-61
2024/01/08 08:07:35;;;;;;;7.03;3.85;;;;;;;;;;5103083;27;20052;-61
2024/01/08 08:10:02;;;;;;;7.35;4.22;;;;;;;;;;5102382;28;20056;-61
2024/01/08 08:12:28;;;;;;;5.50;4.03;;;;;;;;;;5090909;27;20052;-61
2024/01/08 08:14:58;;;;;;;5.55;3.75;;;;;;;;;;5102709;27;20056;-61
2024/01/08 08:17:25;;;;;;;5.40;3.78;;;;;;;;;;5102861;27;20462;-61
2024/01/08 08:19:53;;;;;;;6.25;3.67;;;;;;;;;;5102799;27;20102;-60
2024/01/08 08:22:19;;;;;;;5.50;4.40;;;;;;;;;;5090481;27;20048;-61
2024/01/08 08:24:47;;;;;;;6.30;3.88;;;;;;;;;;5087089;28;20134;-62
2024/01/08 08:27:13;;;;;;;4.70;3.55;;;;;;;;;;5092475;28;20052;-62
2024/01/08 08:29:41;;;;;;;6.82;4.20;;;;;;;;;;5088266;28;20078;-60
2024/01/08 08:32:08;;;;;;;5.82;3.65;;;;;;;;;;5104375;27;20513;-61
2024/01/08 08:34:35;;;;;;;5.25;3.47;;;;;;;;;;5101879;27;20182;-62
2024/01/08 08:37:02;;;;;;;6.47;4.03;;;;;;;;;;5102942;27;20052;-61
2024/01/08 08:39:31;;;;;;;4.82;3.83;;;;;;;;;;5100558;27;20052;-62
2024/01/08 08:41:57;;;;;;;5.97;3.80;;;;;;;;;;5101981;27;20063;-62
2024/01/08 08:44:24;;;;;;;5.18;3.55;;;;;;;;;;5102062;27;20079;-61
2024/01/08 08:46:51;;;;;;;5.97;4.15;;;;;;;;;;5101799;27;20569;-60
2024/01/08 08:49:17;;;;;;;5.22;3.80;;;;;;;;;;5103285;27;20483;-60
2024/01/08 08:51:43;;;;;;;5.75;4.03;;;;;;;;;;5102124;27;20430;-62
2024/01/08 08:54:10;;;;;;;7.35;4.25;;;;;;;;;;5101470;27;20059;-62
2024/01/08 08:56:36;;;;;;;4.57;3.85;;;;;;;;;;5101443;27;20505;-62
2024/01/08 08:59:03;;;;;;;5.22;3.88;;;;;;;;;;5110285;27;20591;-61
2024/01/08 09:01:30;;;;;;;6.35;4.65;;;;;;;;;;5101153;27;20525;-61
2024/01/08 09:03:56;;;;;;;8.98;4.63;;;;;;;;;;5101918;27;20052;-60
2024/01/08 09:06:27;;;;;;;7.22;4.68;;;;;;;;;;5102660;28;20106;-58
2024/01/08 09:08:55;;;;;;;6.78;4.25;;;;;;;;;;5101102;28;20055;-61
2024/01/08 09:11:21;;;;;;;7.32;4.28;;;;;;;;;;5102189;27;20141;-60
2024/01/08 09:13:48;;;;;;;7.47;4.75;;;;;;;;;;5102781;27;20129;-62
2024/01/08 09:16:15;;;;;;;5.95;4.30;;;;;;;;;;5102921;27;20555;-63
2024/01/08 09:18:42;;;;;;;6.22;4.22;;;;;;;;;;5101804;27;20060;-61
2024/01/08 09:21:09;;;;;;;5.25;4.10;;;;;;;;;;5101091;27;20048;-61
2024/01/08 09:23:36;;;;;;;5.57;3.85;;;;;;;;;;5103691;27;20052;-61
2024/01/08 09:26:04;;;;;;;7.93;4.65;;;;;;;;;;5106740;27;20142;-62
2024/01/08 09:28:31;;;;;;;6.07;4.30;;;;;;;;;;5104809;27;20414;-62
2024/01/08 09:30:58;;;;;;;5.13;3.67;;;;;;;;;;5105182;27;20056;-60
2024/01/08 09:33:25;;;;;;;5.60;4.05;;;;;;;;;;5104835;27;20551;-59
2024/01/08 09:35:52;;;;;;;6.45;4.20;;;;;;;;;;5105595;27;20056;-63
2024/01/08 09:38:18;;;;;;;7.82;4.15;;;;;;;;;;5106167;27;20079;-62
2024/01/08 09:40:46;;;;;;;8.00;4.35;;;;;;;;;;5105104;27;20052;-61
2024/01/08 09:43:14;;;;;;;5.43;3.90;;;;;;;;;;5104538;28;20063;-60
2024/01/08 09:45:56;;;;;;;8.40;5.10;;;;;;;;;;5093422;27;20055;-60
2024/01/08 09:48:24;;;;;;;6.28;4.30;;;;;;;;;;5089534;27;20052;-63
2024/01/08 09:50:50;;;;;;;7.65;4.75;;;;;;;;;;5103200;28;20052;-61
2024/01/08 09:53:17;;;;;;;9.20;5.18;;;;;;;;;;5105391;27;20067;-61
2024/01/08 09:55:43;;;;;;;7.10;4.80;;;;;;;;;;5105038;27;20056;-63
2024/01/08 09:58:10;;;;;;;6.53;4.53;;;;;;;;;;5105517;27;20064;-61
2024/01/08 10:00:36;;;;;;;9.80;4.38;;;;;;;;;;5105912;27;20106;-61
2024/01/08 10:03:03;;;;;;;5.55;4.43;;;;;;;;;;5105256;27;20087;-61
2024/01/08 10:05:32;;;;;;;7.78;4.28;;;;;;;;;;5104277;27;20800;-60
2024/01/08 10:08:00;;;;;;;6.97;4.45;;;;;;;;;;5105438;27;20134;-59
2024/01/08 10:10:29;;;;;;;5.50;4.15;;;;;;;;;;5105573;27;20086;-62
2024/01/08 10:12:55;;;;;;;5.13;3.90;;;;;;;;;;5105084;27;20076;-61
2024/01/08 10:15:22;;;;;;;6.18;4.35;;;;;;;;;;5105068;27;20064;-61
2024/01/08 10:17:50;;;;;;;7.15;4.40;;;;;;;;;;5103364;28;20116;-62
2024/01/08 10:20:17;;;;;;;6.55;4.25;;;;;;;;;;5104557;27;20048;-60
2024/01/08 10:22:45;;;;;;;9.18;5.75;;;;;;;;;;5105756;27;20169;-61
2024/01/08 10:25:11;;;;;;;6.15;4.47;;;;;;;;;;5104710;27;20064;-62
2024/01/08 10:27:38;;;;;;;8.65;4.63;;;;;;;;;;5104889;27;20062;-60
2024/01/08 10:30:05;;;;;;;7.35;4.85;;;;;;;;;;5103627;27;22242;-61
2024/01/08 10:32:31;;;;;;;7.40;4.57;;;;;;;;;;5104925;27;20056;-61
2024/01/08 10:34:58;;;;;;;7.88;4.55;;;;;;;;;;5101595;27;20052;-61
2024/01/08 10:37:26;;;;;;;6.97;4.88;;;;;;;;;;5104674;27;20052;-63
2024/01/08 10:39:53;;;;;;;8.05;4.20;;;;;;;;;;5103410;28;20056;-62
2024/01/08 10:42:19;;;;;;;7.80;4.53;;;;;;;;;;5105609;27;20510;-61
2024/01/08 10:44:45;;;;;;;7.78;4.05;;;;;;;;;;5104110;27;20529;-61
2024/01/08 10:47:16;;;;;;;7.32;4.72;;;;;;;;;;5104180;27;20619;-60
2024/01/08 10:49:48;;;;;;;7.15;4.25;;;;;;;;;;5103594;27;20060;-61
2024/01/08 10:52:24;;;;;;;7.22;4.47;;;;;;;;;;5098995;27;20048;-60
2024/01/08 10:54:53;;;;;;;8.05;4.43;;;;;;;;;;5095722;28;20058;-61
2024/01/08 10:57:20;;;;;;;8.57;4.50;;;;;;;;;;5104695;27;20494;-61
2024/01/08 10:59:48;;;;;;;8.15;4.35;;;;;;;;;;5104321;27;20079;-61
2024/01/08 11:02:16;;;;;;;4.93;3.70;;;;;;;;;;5103175;27;20062;-61
2024/01/08 11:04:45;;;;;;;6.13;4.38;;;;;;;;;;5103764;27;20577;-60
2024/01/08 11:07:13;;;;;;;5.25;3.67;;;;;;;;;;5084332;28;20586;-60
2024/01/08 11:09:39;;;;;;;5.72;4.50;;;;;;;;;;5098732;27;20056;-62
2024/01/08 11:12:12;;;;;;;7.43;4.43;;;;;;;;;;5104672;28;20548;-61
2024/01/08 11:14:39;;;;;;;5.35;3.53;;;;;;;;;;5103959;27;20153;-61
2024/01/08 11:17:09;;;;;;;6.60;3.88;;;;;;;;;;5104691;27;20083;-62
2024/01/08 11:19:45;;;;;;;7.68;4.78;;;;;;;;;;5101427;28;20139;-62
2024/01/08 11:22:11;;;;;;;8.85;4.97;;;;;;;;;;5103529;27;20477;-61
2024/01/08 11:24:38;;;;;;;7.63;3.97;;;;;;;;;;5103726;27;20055;-62
2024/01/08 11:27:05;;;;;;;5.70;3.97;;;;;;;;;;5104341;27;20056;-61
2024/01/08 11:29:32;;;;;;;7.60;4.25;;;;;;;;;;5104387;27;20123;-60
2024/01/08 11:32:09;;;;;;;5.60;4.30;;;;;;;;;;5102542;28;20076;-61
2024/01/08 11:34:59;;;;;;;8.50;4.20;;;;;;;;;;5102469;27;20052;-61
2024/01/08 11:37:32;;;;;;;7.43;4.05;;;;;;;;;;5103913;28;20141;-62
2024/01/08 11:40:04;;;;;;;7.63;4.35;;;;;;;;;;5102369;28;20054;-60
2024/01/08 11:42:31;;;;;;;4.25;3.35;;;;;;;;;;5104125;27;20060;-62
2024/01/08 11:44:59;;;;;;;5.03;3.80;;;;;;;;;;5103145;27;20052;-59
2024/01/08 11:47:25;;;;;;;7.43;4.90;;;;;;;;;;5092978;28;20501;-60
2024/01/08 11:49:52;;;;;;;6.47;4.15;;;;;;;;;;5103085;27;20114;-61
2024/01/08 11:52:18;;;;;;;6.95;4.45;;;;;;;;;;5094256;27;20136;-61
2024/01/08 11:54:49;;;;;;;7.35;4.35;;;;;;;;;;5102666;27;20058;-62
2024/01/08 11:57:17;;;;;;;4.97;3.97;;;;;;;;;;5105272;27;20140;-62
2024/01/08 11:59:44;;;;;;;6.20;4.18;;;;;;;;;;5115087;27;20149;-62
2024/01/08 12:02:17;;;;;;;7.88;4.97;;;;;;;;;;5102721;27;20164;-61
2024/01/08 12:04:57;;;;;;;6.93;4.57;;;;;;;;;;5103698;27;20051;-59
2024/01/08 12:07:24;;;;;;;5.10;3.80;;;;;;;;;;5101682;27;20048;-62
2024/01/08 12:09:50;;;;;;;6.90;4.20;;;;;;;;;;5103429;27;20134;-62
2024/01/08 12:12:17;;;;;;;6.25;4.00;;;;;;;;;;5102970;27;20059;-61
2024/01/08 12:14:46;;;;;;;4.38;3.72;;;;;;;;;;5102607;27;20055;-61
2024/01/08 12:17:13;;;;;;;5.55;3.35;;;;;;;;;;5098457;27;20176;-63
2024/01/08 12:19:42;;;;;;;5.00;3.78;;;;;;;;;;5102546;27;20094;-60
2024/01/08 12:22:12;;;;;;;6.55;3.95;;;;;;;;;;5103359;27;20102;-63
2024/01/08 12:24:40;;;;;;;6.25;4.00;;;;;;;;;;5103976;27;20585;-61
2024/01/08 12:27:06;;;;;;;5.50;4.28;;;;;;;;;;5103842;27;20129;-62
2024/01/08 12:29:37;;;;;;;7.15;4.55;;;;;;;;;;5102306;27;20059;-63
2024/01/08 12:32:04;;;;;;;6.18;4.13;;;;;;;;;;5103109;27;20052;-62
2024/01/08 12:34:31;;;;;;;4.40;3.92;;;;;;;;;;5102339;27;20109;-62
2024/01/08 12:36:58;;;;;;;6.82;4.20;;;;;;;;;;5102253;27;20067;-62
2024/01/08 12:39:25;;;;;;;5.65;3.95;;;;;;;;;;5103487;27;20151;-61
2024/01/08 12:41:55;;;;;;;6.15;4.68;;;;;;;;;;5102819;27;20115;-62
2024/01/08 12:44:23;;;;;;;8.70;4.60;;;;;;;;;;5102240;27;20056;-62
2024/01/08 12:46:50;;;;;;;4.93;4.05;;;;;;;;;;5100974;28;20056;-61
2024/01/08 12:49:20;;;;;;;6.20;4.15;;;;;;;;;;5103470;27;20133;-62
2024/01/08 12:51:47;;;;;;;5.60;3.90;;;;;;;;;;5101866;27;20056;-62
2024/01/08 12:54:13;;;;;;;5.20;4.00;;;;;;;;;;5100656;28;20145;-61
2024/01/08 12:56:40;;;;;;;8.07;4.07;;;;;;;;;;5102354;27;20436;-62
2024/01/08 12:59:07;;;;;;;5.03;3.30;;;;;;;;;;5102357;27;20044;-61
2024/01/08 13:01:37;;;;;;;5.38;3.80;;;;;;;;;;5082113;28;20140;-61
2024/01/08 13:04:04;;;;;;;6.55;4.15;;;;;;;;;;5097098;28;20079;-60
2024/01/08 13:06:31;;;;;;;5.45;4.40;;;;;;;;;;5101520;27;20550;-63
2024/01/08 13:08:58;;;;;;;5.93;3.92;;;;;;;;;;5093954;27;20059;-62
2024/01/08 13:11:25;;;;;;;7.22;3.63;;;;;;;;;;5083842;28;20053;-60
2024/01/08 13:13:51;;;;;;;7.93;4.03;;;;;;;;;;5100707;28;20135;-60
2024/01/08 13:16:18;;;;;;;8.32;3.88;;;;;;;;;;5099762;27;20052;-62
2024/01/08 13:18:45;;;;;;;4.53;3.60;;;;;;;;;;5099120;27;20052;-61
2024/01/08 13:21:11;;;;;;;4.88;3.33;;;;;;;;;;5102656;27;20143;-61
2024/01/08 13:23:39;;;;;;;3.63;2.80;;;;;;;;;;5102006;27;20170;-62
2024/01/08 13:26:05;;;;;;;4.05;2.95;;;;;;;;;;5102017;27;20048;-61
2024/01/08 13:28:32;;;;;;;4.57;3.15;;;;;;;;;;5103224;27;21101;-62
2024/01/08 13:30:58;;;;;;;6.10;2.72;;;;;;;;;;5093285;27;20056;-60
2024/01/08 13:33:25;;;;;;;3.45;2.60;;;;;;;;;;5099965;27;20418;-61
2024/01/08 13:35:54;;;;;;;3.72;2.78;;;;;;;;;;5097651;28;20052;-59
2024/01/08 13:38:20;;;;;;;4.72;2.65;;;;;;;;;;5101359;28;20055;-63
2024/01/08 13:40:47;;;;;;;3.97;2.75;;;;;;;;;;5101211;28;20060;-62
2024/01/08 13:43:14;;;;;;;3.33;2.80;;;;;;;;;;5102897;27;20061;-59
2024/01/08 13:45:40;;;;;;;8.02;3.15;;;;;;;;;;5103400;27;20545;-61
2024/01/08 13:48:06;;;;;;;3.35;2.38;;;;;;;;;;5097771;27;20056;-62
2024/01/08 13:50:33;;;;;;;4.75;2.75;;;;;;;;;;5082885;28;20210;-60
2024/01/08 13:53:00;;;;;;;4.00;2.67;;;;;;;;;;5081546;28;20525;-62
2024/01/08 13:55:26;;;;;;;4.43;3.20;;;;;;;;;;5101300;28;20481;-60
2024/01/08 13:57:53;;;;;;;5.28;3.60;;;;;;;;;;5102341;27;20056;-61
2024/01/08 14:00:19;;;;;;;4.75;3.08;;;;;;;;;;5102073;27;20510;-61
2024/01/08 14:02:46;;;;;;;4.78;3.67;;;;;;;;;;5101979;28;20713;-62
2024/01/08 14:05:12;;;;;;;5.55;2.70;;;;;;;;;;5102612;27;20048;-62
2024/01/08 14:07:39;;;;;;;6.43;3.60;;;;;;;;;;5097069;27;20502;-61
2024/01/08 14:10:07;;;;;;;4.55;3.30;;;;;;;;;;5092459;28;20052;-61
2024/01/08 14:12:33;;;;;;;4.40;3.15;;;;;;;;;;5105187;27;20076;-62
2024/01/08 14:14:59;;;;;;;5.40;2.58;;;;;;;;;;5106048;27;20110;-61
2024/01/08 14:17:26;;;;;;;4.88;3.10;;;;;;;;;;5105467;27;20106;-62
2024/01/08 14:19:53;;;;;;;3.60;2.60;;;;;;;;;;5106362;27;20475;-61
2024/01/08 14:22:19;;;;;;;4.80;3.03;;;;;;;;;;5105769;27;20522;-62
2024/01/08 14:24:46;;;;;;;5.28;3.35;;;;;;;;;;5102124;27;20061;-61
2024/01/08 14:27:12;;;;;;;5.22;3.35;;;;;;;;;;5105391;27;20063;-61
2024/01/08 14:29:38;;;;;;;4.05;3.10;;;;;;;;;;5106430;27;20052;-59
2024/01/08 14:32:05;;;;;;;4.03;2.63;;;;;;;;;;5105810;27;20052;-61
2024/01/08 14:34:32;;;;;;;4.60;3.13;;;;;;;;;;5106167;27;20051;-62
2024/01/08 14:36:58;;;;;;;4.65;3.00;;;;;;;;;;5106023;27;20109;-62
2024/01/08 14:39:27;;;;;;;4.18;3.13;;;;;;;;;;5105632;27;20129;-61
2024/01/08 14:41:53;;;;;;;3.63;3.03;;;;;;;;;;5102973;27;20063;-59